Time;durP1;ratioP1;P1;durP2;ratioP2;P2;SDS_P1;SDS_P2;PMS_P1;PMS_P2;Temp;Humidity;BMP_temperature;BMP_pressure;BME280_temperature;BME280_humidity;BME280_pressure;Samples;Min_cycle;Max_cycle;Signal;HPM_P1;HPM_P2
2021/04/28 00:02:25;;;;;;;3.97;3.40;;;;;;;8.26;42.26;95310.59;5086246;28;20102;-77
2021/04/28 00:04:52;;;;;;;3.80;3.55;;;;;;;8.23;42.44;95309.25;5089363;28;20036;-77
2021/04/28 00:07:18;;;;;;;5.65;4.25;;;;;;;8.22;42.51;95312.09;5088960;28;20040;-77
2021/04/28 00:09:44;;;;;;;4.38;3.90;;;;;;;8.17;42.57;95312.78;5081982;28;20055;-76
2021/04/28 00:12:10;;;;;;;5.00;3.33;;;;;;;8.13;42.74;95315.06;5079371;28;20440;-77
2021/04/28 00:14:37;;;;;;;3.92;3.60;;;;;;;8.09;42.89;95321.75;5087117;28;20033;-76
2021/04/28 00:17:03;;;;;;;5.60;3.67;;;;;;;8.06;43.10;95317.00;5085782;28;20040;-77
2021/04/28 00:19:30;;;;;;;3.90;3.60;;;;;;;8.06;43.11;95316.19;5084310;28;20074;-77
2021/04/28 00:21:56;;;;;;;4.97;3.80;;;;;;;8.04;43.28;95313.00;5077668;28;20063;-77
2021/04/28 00:24:23;;;;;;;5.03;3.70;;;;;;;8.01;43.27;95311.66;5090429;28;20037;-77
2021/04/28 00:26:49;;;;;;;5.32;3.67;;;;;;;7.99;43.49;95313.72;5083285;28;20036;-76
2021/04/28 00:29:16;;;;;;;3.90;3.60;;;;;;;7.96;43.50;95314.19;5082883;28;20456;-77
2021/04/28 00:31:42;;;;;;;4.13;3.28;;;;;;;7.93;43.61;95306.78;5080789;28;20063;-77
2021/04/28 00:34:08;;;;;;;6.18;4.07;;;;;;;7.92;43.74;95310.44;5087128;28;20124;-77
2021/04/28 00:36:34;;;;;;;3.63;3.33;;;;;;;7.89;43.90;95303.03;5087225;28;20475;-77
2021/04/28 00:39:00;;;;;;;4.35;3.95;;;;;;;7.86;43.87;95309.53;5083669;28;20472;-76
2021/04/28 00:41:27;;;;;;;3.97;3.58;;;;;;;7.82;43.86;95300.56;5080372;28;20369;-76
2021/04/28 00:43:53;;;;;;;4.85;3.90;;;;;;;7.80;44.09;95299.22;5086915;28;20036;-77
2021/04/28 00:46:20;;;;;;;3.97;3.58;;;;;;;7.79;44.25;95298.41;5089832;28;20032;-77
2021/04/28 00:48:46;;;;;;;4.57;3.85;;;;;;;7.76;44.34;95298.06;5081653;28;20032;-76
2021/04/28 00:51:12;;;;;;;4.32;3.92;;;;;;;7.73;44.25;95294.09;5082195;28;20047;-77
2021/04/28 00:53:41;;;;;;;3.65;3.35;;;;;;;7.68;44.50;95293.97;5084341;28;20027;-77
2021/04/28 00:56:08;;;;;;;3.63;3.33;;;;;;;7.67;44.21;95295.03;5079333;28;20400;-77
2021/04/28 00:58:34;;;;;;;4.20;3.80;;;;;;;7.61;44.52;95294.09;5086163;28;20396;-77
2021/04/28 01:01:01;;;;;;;3.80;3.40;;;;;;;7.58;44.49;95286.75;5084825;28;20040;-77
2021/04/28 01:03:28;;;;;;;3.65;3.35;;;;;;;7.55;44.49;95289.78;5083175;28;20036;-77
2021/04/28 01:06:00;;;;;;;3.72;3.42;;;;;;;7.51;44.91;95289.44;5082877;28;20039;-77
2021/04/28 01:08:27;;;;;;;3.60;3.30;;;;;;;7.46;44.83;95284.13;5082745;28;20103;-77
2021/04/28 01:10:54;;;;;;;3.25;2.95;;;;;;;7.44;44.68;95291.38;5076386;28;20050;-76
2021/04/28 01:13:21;;;;;;;4.20;3.90;;;;;;;7.42;44.77;95277.78;5080456;28;20052;-77
2021/04/28 01:15:48;;;;;;;3.88;3.58;;;;;;;7.39;44.74;95288.66;5088770;28;20035;-77
2021/04/28 01:18:16;;;;;;;3.80;3.50;;;;;;;7.35;45.02;95289.31;5080303;28;20056;-77
2021/04/28 01:20:43;;;;;;;3.92;3.20;;;;;;;7.29;45.07;95278.78;5080179;28;20052;-77
2021/04/28 01:23:12;;;;;;;4.40;3.70;;;;;;;7.25;45.11;95288.06;5082300;28;20091;-77
2021/04/28 01:25:47;;;;;;;4.00;3.60;;;;;;;7.20;45.34;95287.97;5093012;28;20047;-77
2021/04/28 01:28:17;;;;;;;3.80;3.50;;;;;;;7.17;45.53;95282.41;5082038;28;20045;-77
2021/04/28 01:31:13;;;;;;;3.88;3.58;;;;;;;7.11;46.69;95287.47;5078848;28;20051;-77
2021/04/28 01:33:50;;;;;;;4.07;3.67;;;;;;;7.05;46.77;95279.75;5054955;28;20045;-77
2021/04/28 01:36:20;;;;;;;4.13;3.75;;;;;;;7.01;46.32;95276.00;5082423;28;20032;-77
2021/04/28 01:38:51;;;;;;;3.72;3.42;;;;;;;6.97;46.09;95274.88;5081062;28;20511;-77
2021/04/28 01:41:18;;;;;;;4.25;3.95;;;;;;;6.95;46.15;95271.69;5084543;28;20031;-77
2021/04/28 01:43:44;;;;;;;5.32;3.90;;;;;;;6.90;46.01;95275.75;5077520;28;20036;-77
2021/04/28 01:46:13;;;;;;;4.13;3.72;;;;;;;6.86;46.17;95274.63;5083784;28;20464;-77
2021/04/28 01:48:40;;;;;;;5.30;4.20;;;;;;;6.83;46.31;95275.06;5079863;28;20044;-77
2021/04/28 01:51:08;;;;;;;4.43;4.03;;;;;;;6.79;46.26;95281.75;5088389;28;20045;-76
2021/04/28 01:53:36;;;;;;;5.50;3.80;;;;;;;6.76;46.77;95284.00;5083931;28;20043;-76
2021/04/28 01:56:03;;;;;;;4.00;3.70;;;;;;;6.68;46.67;95279.91;5078819;28;20052;-77
2021/04/28 01:58:30;;;;;;;4.60;4.20;;;;;;;6.63;46.71;95272.75;5075401;28;20476;-77
2021/04/28 02:00:58;;;;;;;4.40;3.85;;;;;;;6.61;46.99;95271.38;5084779;28;20044;-77
2021/04/28 02:03:31;;;;;;;4.75;4.28;;;;;;;6.57;46.99;95271.00;5085796;28;20047;-76
2021/04/28 02:06:05;;;;;;;4.28;3.88;;;;;;;6.53;47.23;95272.50;5082748;28;20411;-77
2021/04/28 02:08:35;;;;;;;4.15;3.85;;;;;;;6.49;47.13;95279.16;5058658;28;20049;-76
2021/04/28 02:11:04;;;;;;;4.32;3.80;;;;;;;6.44;47.44;95282.41;5083385;28;20043;-76
2021/04/28 02:13:38;;;;;;;4.50;4.10;;;;;;;6.40;48.16;95281.25;5084034;28;20452;-77
2021/04/28 02:16:05;;;;;;;;;;;;;;;6.37;48.74;95280.91;5086398;28;20418;-77
2021/04/28 02:18:32;;;;;;;6.75;4.00;;;;;;;6.34;47.55;95268.31;5085503;28;19927;-77
2021/04/28 02:21:03;;;;;;;4.20;3.80;;;;;;;6.33;48.24;95266.75;5088717;28;20051;-76
2021/04/28 02:23:31;;;;;;;7.30;4.13;;;;;;;6.28;47.74;95270.81;5084213;28;20032;-76
2021/04/28 02:25:58;;;;;;;4.50;4.10;;;;;;;6.28;47.94;95270.03;5085239;28;20047;-76
2021/04/28 02:28:25;;;;;;;4.65;4.25;;;;;;;6.26;48.05;95264.25;5088931;28;20043;-76
2021/04/28 02:30:51;;;;;;;4.15;3.70;;;;;;;6.22;47.96;95263.88;5089935;28;20052;-76
2021/04/28 02:33:17;;;;;;;5.15;4.22;;;;;;;6.19;48.09;95261.69;5081641;28;20047;-76
2021/04/28 02:35:44;;;;;;;4.68;4.28;;;;;;;6.16;48.14;95269.16;5085202;28;20044;-77
2021/04/28 02:38:23;;;;;;;4.88;4.20;;;;;;;6.15;49.24;95267.56;5086234;28;20400;-77
2021/04/28 02:40:50;;;;;;;5.28;4.78;;;;;;;6.11;48.14;95264.63;5093283;28;20032;-77
2021/04/28 02:43:19;;;;;;;4.47;4.05;;;;;;;6.10;48.46;95263.81;5080408;28;20039;-77
2021/04/28 02:45:47;;;;;;;4.70;4.30;;;;;;;6.07;48.43;95256.44;5087353;28;20056;-77
2021/04/28 02:48:16;;;;;;;5.07;4.57;;;;;;;6.04;48.60;95253.47;5085121;28;20051;-77
2021/04/28 02:50:43;;;;;;;4.90;4.47;;;;;;;6.01;48.73;95251.31;5089350;28;20040;-77
2021/04/28 02:53:14;;;;;;;4.43;4.03;;;;;;;5.98;48.94;95252.53;5085412;28;20040;-77
2021/04/28 02:55:56;;;;;;;4.40;4.00;;;;;;;5.96;48.91;95254.56;5085417;28;20036;-77
2021/04/28 02:58:23;;;;;;;4.47;4.07;;;;;;;5.92;48.88;95249.97;5086200;28;20059;-77
2021/04/28 03:00:56;;;;;;;5.55;4.70;;;;;;;5.87;48.98;95248.03;5082728;28;20039;-77
2021/04/28 03:03:22;;;;;;;4.55;4.15;;;;;;;5.82;49.12;95246.09;5083697;28;20060;-76
2021/04/28 03:05:50;;;;;;;5.13;4.38;;;;;;;5.77;49.30;95245.94;5085710;28;20036;-76
2021/04/28 03:08:18;;;;;;;4.80;4.40;;;;;;;5.73;49.28;95242.16;5083319;28;20377;-76
2021/04/28 03:10:47;;;;;;;5.15;4.65;;;;;;;5.70;49.60;95248.59;5080933;28;20057;-76
2021/04/28 03:13:14;;;;;;;4.50;4.10;;;;;;;5.67;49.53;95245.66;5086846;28;20046;-77
2021/04/28 03:15:40;;;;;;;5.03;4.63;;;;;;;5.63;49.56;95245.28;5085221;28;20028;-76
2021/04/28 03:18:07;;;;;;;6.07;4.20;;;;;;;5.59;49.81;95243.34;5084131;28;20064;-77
2021/04/28 03:20:35;;;;;;;5.13;4.03;;;;;;;5.56;49.87;95252.34;5091934;28;20536;-77
2021/04/28 03:23:02;;;;;;;4.65;4.25;;;;;;;5.54;49.88;95245.78;5083220;28;20048;-77
2021/04/28 03:25:29;;;;;;;4.82;4.32;;;;;;;5.51;49.90;95243.63;5084609;28;20051;-77
2021/04/28 03:27:55;;;;;;;5.88;4.60;;;;;;;5.47;50.07;95246.63;5082541;28;20048;-77
2021/04/28 03:30:22;;;;;;;4.57;4.00;;;;;;;5.43;50.23;95252.50;5087150;28;20033;-77
2021/04/28 03:32:48;;;;;;;4.80;4.40;;;;;;;5.37;50.01;95248.16;5088443;28;20036;-77
2021/04/28 03:35:14;;;;;;;4.82;4.43;;;;;;;5.34;50.32;95246.00;5081159;28;20047;-77
2021/04/28 03:37:40;;;;;;;4.93;4.43;;;;;;;5.29;50.46;95244.00;5087473;28;20036;-77
2021/04/28 03:40:07;;;;;;;4.32;4.03;;;;;;;5.26;50.50;95241.84;5088562;28;20036;-77
2021/04/28 03:42:33;;;;;;;5.10;4.60;;;;;;;5.23;50.61;95250.88;5083202;28;20043;-77
2021/04/28 03:45:00;;;;;;;4.95;4.38;;;;;;;5.20;50.71;95240.88;5081981;28;20044;-77
2021/04/28 03:47:26;;;;;;;6.20;4.90;;;;;;;5.19;50.69;95254.13;5086137;28;20385;-77
2021/04/28 03:49:52;;;;;;;4.57;4.18;;;;;;;5.19;50.93;95254.91;5084153;28;20040;-77
2021/04/28 03:52:18;;;;;;;5.32;4.47;;;;;;;5.18;51.00;95249.91;5082223;28;20044;-77
2021/04/28 03:54:45;;;;;;;6.32;4.47;;;;;;;5.15;50.88;95258.16;5080467;28;20051;-77
2021/04/28 03:57:11;;;;;;;4.95;4.47;;;;;;;5.14;51.01;95259.94;5085109;28;20037;-77
2021/04/28 03:59:37;;;;;;;5.07;4.68;;;;;;;5.11;51.32;95257.78;5072864;28;20032;-76
2021/04/28 04:02:04;;;;;;;7.47;4.78;;;;;;;5.08;51.44;95258.19;5080895;28;20039;-77
2021/04/28 04:04:30;;;;;;;5.50;5.00;;;;;;;5.04;51.34;95252.63;5085307;28;20036;-77
2021/04/28 04:06:56;;;;;;;5.70;4.60;;;;;;;5.03;51.37;95260.63;5089302;28;20040;-77
2021/04/28 04:09:22;;;;;;;5.07;4.65;;;;;;;4.98;51.43;95256.06;5081304;28;20444;-77
2021/04/28 04:11:49;;;;;;;5.30;4.45;;;;;;;4.95;51.36;95269.47;5084375;28;20044;-76
2021/04/28 04:14:16;;;;;;;4.97;4.47;;;;;;;4.95;51.78;95263.50;5088658;28;20393;-77
2021/04/28 04:16:42;;;;;;;5.18;4.68;;;;;;;4.93;51.54;95268.09;5084008;28;20043;-77
2021/04/28 04:19:08;;;;;;;6.15;4.40;;;;;;;4.90;51.76;95269.31;5089248;28;20055;-77
2021/04/28 04:21:35;;;;;;;4.95;4.20;;;;;;;4.89;51.85;95272.91;5086612;28;20044;-77
2021/04/28 04:24:01;;;;;;;5.43;4.50;;;;;;;4.91;51.92;95272.72;5084495;28;20040;-77
2021/04/28 04:26:27;;;;;;;5.18;4.75;;;;;;;4.89;51.96;95278.09;5082825;28;20036;-77
2021/04/28 04:28:53;;;;;;;5.05;4.55;;;;;;;4.90;51.94;95281.53;5077122;28;20036;-77
2021/04/28 04:31:19;;;;;;;5.28;4.78;;;;;;;4.90;51.88;95273.72;5087161;28;20392;-77
2021/04/28 04:33:46;;;;;;;5.45;4.82;;;;;;;4.88;52.07;95279.91;5089810;28;20052;-77
2021/04/28 04:36:12;;;;;;;5.38;4.88;;;;;;;4.89;52.19;95278.09;5078166;28;20032;-77
2021/04/28 04:38:38;;;;;;;5.45;4.30;;;;;;;4.87;52.17;95278.34;5082043;28;20496;-77
2021/04/28 04:41:04;;;;;;;4.57;4.18;;;;;;;4.88;52.01;95286.91;5088327;28;20036;-77
2021/04/28 04:43:30;;;;;;;5.20;4.55;;;;;;;4.92;52.30;95274.31;5082679;28;20530;-77
2021/04/28 04:45:57;;;;;;;7.70;4.55;;;;;;;5.02;52.66;95279.84;5078164;28;20469;-77
2021/04/28 04:48:23;;;;;;;5.50;4.63;;;;;;;5.20;52.57;95281.69;5081744;28;20048;-77
2021/04/28 04:50:49;;;;;;;4.97;4.53;;;;;;;5.40;52.57;95282.31;5087060;28;20040;-77
2021/04/28 04:53:15;;;;;;;4.82;4.43;;;;;;;5.70;52.50;95285.03;5084066;28;20047;-77
2021/04/28 04:55:42;;;;;;;5.90;4.90;;;;;;;5.98;52.22;95273.34;5080464;28;20036;-77
2021/04/28 04:58:08;;;;;;;4.80;4.35;;;;;;;6.10;51.76;95270.81;5080670;28;20040;-77
2021/04/28 05:00:34;;;;;;;5.40;4.28;;;;;;;6.40;51.84;95275.25;5084029;28;20491;-77
2021/04/28 05:03:00;;;;;;;5.82;4.60;;;;;;;6.79;51.81;95273.94;5083902;28;20051;-77
2021/04/28 05:05:26;;;;;;;5.22;4.47;;;;;;;7.18;51.45;95269.16;5080037;28;20399;-77
2021/04/28 05:07:53;;;;;;;5.25;4.72;;;;;;;7.59;50.77;95267.44;5082413;28;20473;-76
2021/04/28 05:10:20;;;;;;;5.32;4.80;;;;;;;7.98;50.20;95264.31;5085475;28;20043;-77
2021/04/28 05:12:47;;;;;;;5.18;4.57;;;;;;;8.32;49.88;95255.63;5081948;28;20044;-77
2021/04/28 05:15:16;;;;;;;5.05;4.07;;;;;;;8.66;48.37;95252.34;5077120;28;20481;-78
2021/04/28 05:17:43;;;;;;;4.90;4.30;;;;;;;9.01;48.39;95251.34;5079629;28;20032;-76
2021/04/28 05:20:11;;;;;;;4.80;4.40;;;;;;;9.31;47.95;95245.81;5077332;28;20056;-77
2021/04/28 05:22:37;;;;;;;4.90;4.32;;;;;;;9.66;47.39;95244.72;5086328;28;20040;-77
2021/04/28 05:25:05;;;;;;;4.90;4.45;;;;;;;10.02;46.92;95232.88;5089093;28;20040;-77
2021/04/28 05:27:32;;;;;;;5.70;4.18;;;;;;;10.40;46.33;95238.31;5080671;28;20032;-77
2021/04/28 05:29:59;;;;;;;4.32;4.03;;;;;;;10.56;45.04;95229.53;5083520;28;20032;-77
2021/04/28 05:32:25;;;;;;;6.47;4.70;;;;;;;10.51;44.58;95227.66;5082808;28;20378;-77
2021/04/28 05:34:53;;;;;;;6.25;4.95;;;;;;;10.46;44.48;95219.78;5089358;28;20043;-77
2021/04/28 05:37:20;;;;;;;6.85;5.20;;;;;;;10.50;44.15;95228.72;5068370;28;20039;-76
2021/04/28 05:39:47;;;;;;;5.88;4.20;;;;;;;10.73;44.04;95222.38;5064420;28;20044;-77
2021/04/28 05:42:14;;;;;;;6.00;4.68;;;;;;;11.03;43.58;95228.16;5087001;28;20044;-77
2021/04/28 05:44:41;;;;;;;5.82;4.25;;;;;;;11.32;43.18;95228.63;5082879;28;20039;-77
2021/04/28 05:47:07;;;;;;;4.18;3.88;;;;;;;11.57;42.39;95225.38;5080839;28;20033;-77
2021/04/28 05:49:33;;;;;;;5.95;4.60;;;;;;;11.55;41.80;95225.63;5090351;28;20059;-77
2021/04/28 05:51:59;;;;;;;4.55;4.15;;;;;;;11.33;41.33;95223.09;5090900;28;20040;-77
2021/04/28 05:54:34;;;;;;;5.13;4.63;;;;;;;11.21;41.54;95222.50;5082405;28;20047;-77
2021/04/28 05:57:02;;;;;;;5.30;4.63;;;;;;;11.34;41.52;95227.34;5086396;28;20041;-77
2021/04/28 05:59:28;;;;;;;5.03;4.40;;;;;;;11.51;41.23;95224.53;5087969;28;20055;-77
2021/04/28 06:01:54;;;;;;;5.45;4.30;;;;;;;11.72;40.91;95222.84;5087876;28;20051;-77
2021/04/28 06:04:20;;;;;;;5.05;4.55;;;;;;;12.04;40.74;95226.41;5085588;28;20036;-77
2021/04/28 06:06:47;;;;;;;4.53;4.13;;;;;;;12.21;40.18;95226.22;5087561;28;20500;-77
2021/04/28 06:09:13;;;;;;;4.22;3.83;;;;;;;12.42;39.99;95234.97;5089710;28;20048;-77
2021/04/28 06:11:39;;;;;;;4.40;4.00;;;;;;;12.74;39.74;95222.38;5087339;28;20032;-77
2021/04/28 06:14:05;;;;;;;4.70;4.30;;;;;;;13.06;39.20;95224.00;5087622;28;20044;-77
2021/04/28 06:16:32;;;;;;;4.68;4.22;;;;;;;13.33;38.75;95222.97;5083883;28;20405;-77
2021/04/28 06:18:58;;;;;;;4.35;3.88;;;;;;;13.48;38.28;95224.78;5088489;28;20055;-77
2021/04/28 06:21:24;;;;;;;4.93;3.97;;;;;;;13.58;37.99;95230.81;5066759;28;20047;-77
2021/04/28 06:23:51;;;;;;;6.25;4.07;;;;;;;13.83;37.86;95226.56;5084034;28;20051;-77
2021/04/28 06:26:18;;;;;;;5.53;4.40;;;;;;;13.79;37.19;95218.38;5085474;28;20382;-77
2021/04/28 06:28:45;;;;;;;7.78;4.20;;;;;;;13.88;37.07;95223.91;5068788;28;20041;-77
2021/04/28 06:31:13;;;;;;;5.78;4.25;;;;;;;14.06;36.62;95227.00;5071921;28;20035;-77
2021/04/28 06:33:49;;;;;;;4.88;4.10;;;;;;;14.05;36.88;95230.69;5086647;28;20487;-77
2021/04/28 06:36:15;;;;;;;4.88;4.38;;;;;;;14.18;36.44;95220.38;5080416;28;20400;-77
2021/04/28 06:38:42;;;;;;;6.25;4.10;;;;;;;14.18;36.43;95215.09;5083430;28;20492;-77
2021/04/28 06:41:08;;;;;;;4.35;4.00;;;;;;;14.52;36.42;95224.94;5086773;28;20044;-77
2021/04/28 06:43:35;;;;;;;7.78;3.97;;;;;;;14.76;36.00;95225.13;5090775;28;20044;-77
2021/04/28 06:46:01;;;;;;;5.28;4.15;;;;;;;14.81;35.57;95230.34;5082892;28;20360;-77
2021/04/28 06:48:27;;;;;;;6.78;4.20;;;;;;;14.61;35.45;95226.00;5086648;28;20032;-77
2021/04/28 06:50:54;;;;;;;5.97;3.88;;;;;;;14.80;35.71;95228.78;5082127;28;20040;-77
2021/04/28 06:53:22;;;;;;;3.90;3.60;;;;;;;14.82;35.53;95217.94;5080981;28;20044;-77
2021/04/28 06:55:48;;;;;;;4.13;3.83;;;;;;;14.95;35.23;95217.31;5082538;28;20412;-77
2021/04/28 06:58:16;;;;;;;4.20;3.80;;;;;;;15.10;35.09;95224.34;5069576;28;20036;-77
2021/04/28 07:00:43;;;;;;;4.38;4.07;;;;;;;15.38;34.81;95224.63;5085887;28;20044;-77
2021/04/28 07:03:09;;;;;;;4.32;4.03;;;;;;;15.23;34.46;95228.19;5085923;28;20039;-77
2021/04/28 07:05:35;;;;;;;5.50;4.07;;;;;;;15.12;34.24;95222.22;5064305;28;20036;-77
2021/04/28 07:08:02;;;;;;;7.25;4.45;;;;;;;15.26;34.42;95227.63;5088338;28;20033;-77
2021/04/28 07:10:28;;;;;;;5.93;4.38;;;;;;;15.30;34.03;95227.88;5088695;28;20036;-77
2021/04/28 07:12:55;;;;;;;6.03;4.50;;;;;;;15.29;33.83;95226.31;5084193;28;20051;-77
2021/04/28 07:15:21;;;;;;;4.50;4.10;;;;;;;15.43;33.98;95227.22;5080572;28;20062;-77
2021/04/28 07:17:48;;;;;;;4.20;3.85;;;;;;;15.58;33.71;95235.03;5064475;28;20387;-77
2021/04/28 07:20:16;;;;;;;4.65;4.05;;;;;;;15.79;33.65;95233.00;5092090;28;20032;-77
2021/04/28 07:22:42;;;;;;;6.40;4.18;;;;;;;15.92;33.39;95231.53;5083414;28;20052;-77
2021/04/28 07:25:11;;;;;;;5.03;3.90;;;;;;;16.12;33.33;95233.13;5086587;28;20048;-77
2021/04/28 07:27:38;;;;;;;6.35;4.38;;;;;;;16.28;32.96;95233.75;5080948;28;20470;-77
2021/04/28 07:30:07;;;;;;;4.07;3.78;;;;;;;15.96;32.81;95235.19;5084197;28;20044;-77
2021/04/28 07:32:34;;;;;;;5.05;4.10;;;;;;;15.93;32.99;95237.59;5091357;28;20044;-77
2021/04/28 07:35:00;;;;;;;4.68;4.28;;;;;;;16.15;33.06;95242.38;5087587;28;20032;-77
2021/04/28 07:37:26;;;;;;;4.68;4.25;;;;;;;16.48;33.20;95235.34;5088966;28;20051;-77
2021/04/28 07:40:09;;;;;;;5.40;4.90;;;;;;;16.52;32.56;95228.41;5083526;28;20040;-77
2021/04/28 07:42:36;;;;;;;5.28;4.68;;;;;;;16.80;32.66;95236.53;5081299;28;20051;-77
2021/04/28 07:45:04;;;;;;;5.95;4.15;;;;;;;17.19;32.29;95232.78;5084067;28;20051;-77
2021/04/28 07:47:30;;;;;;;7.65;5.00;;;;;;;17.37;32.14;95228.53;5094549;28;20032;-77
2021/04/28 07:49:56;;;;;;;6.10;4.75;;;;;;;17.32;32.02;95229.38;5084170;28;20391;-77
2021/04/28 07:52:23;;;;;;;5.00;4.50;;;;;;;17.54;31.97;95228.75;5084731;28;20037;-77
2021/04/28 07:54:49;;;;;;;6.78;4.20;;;;;;;17.75;31.73;95225.75;5084722;28;20040;-77
2021/04/28 07:57:15;;;;;;;7.57;5.28;;;;;;;17.80;31.61;95228.28;5067528;28;20480;-77
2021/04/28 07:59:44;;;;;;;5.38;4.90;;;;;;;17.77;31.58;95224.38;5087433;28;20048;-77
2021/04/28 08:02:11;;;;;;;6.00;4.68;;;;;;;17.58;31.49;95221.78;5078840;28;20406;-77
2021/04/28 08:04:39;;;;;;;6.80;5.00;;;;;;;17.64;31.63;95214.53;5081267;28;20045;-77
2021/04/28 08:07:07;;;;;;;6.38;5.50;;;;;;;17.73;31.78;95220.72;5088699;28;20044;-77
2021/04/28 08:09:35;;;;;;;5.57;5.07;;;;;;;17.72;31.46;95215.72;5085418;28;20487;-78
2021/04/28 08:12:03;;;;;;;5.43;4.93;;;;;;;17.82;31.90;95220.81;5085758;28;20040;-77
2021/04/28 08:14:30;;;;;;;6.00;5.40;;;;;;;18.16;31.77;95219.69;5078523;28;20049;-77
2021/04/28 08:16:57;;;;;;;7.40;4.90;;;;;;;18.66;31.83;95220.47;5085027;28;20052;-77
2021/04/28 08:19:25;;;;;;;7.40;5.40;;;;;;;19.18;31.49;95214.81;5082821;28;20051;-77
2021/04/28 08:21:53;;;;;;;5.90;4.80;;;;;;;19.64;30.97;95211.03;5067144;28;20048;-77
2021/04/28 08:24:19;;;;;;;6.03;5.20;;;;;;;19.75;30.39;95213.44;5082367;28;20047;-77
2021/04/28 08:26:46;;;;;;;6.97;5.47;;;;;;;19.82;30.50;95217.25;5083605;28;20052;-78
2021/04/28 08:29:12;;;;;;;5.85;5.45;;;;;;;19.77;30.30;95216.59;5083656;28;20036;-77
2021/04/28 08:31:39;;;;;;;7.15;5.25;;;;;;;19.47;30.49;95214.38;5088061;28;20028;-77
2021/04/28 08:34:05;;;;;;;6.40;5.53;;;;;;;19.55;30.84;95212.84;5082329;28;20040;-77
2021/04/28 08:36:32;;;;;;;7.68;5.97;;;;;;;19.48;30.84;95217.81;5081906;28;20040;-77
2021/04/28 08:38:59;;;;;;;7.18;5.93;;;;;;;19.33;30.96;95211.00;5080543;28;20484;-77
2021/04/28 08:41:25;;;;;;;6.93;5.90;;;;;;;19.39;31.16;95217.75;5082186;28;20037;-77
2021/04/28 08:43:51;;;;;;;6.38;5.28;;;;;;;19.56;31.10;95216.31;5065781;28;20040;-77
2021/04/28 08:46:18;;;;;;;6.13;5.50;;;;;;;19.43;30.91;95209.97;5085999;28;20044;-77
2021/04/28 08:48:44;;;;;;;6.78;5.40;;;;;;;19.26;31.23;95214.09;5089074;28;20035;-78
2021/04/28 08:51:21;;;;;;;6.50;5.90;;;;;;;19.33;31.28;95215.53;5087227;28;20071;-77
2021/04/28 08:53:49;;;;;;;6.35;5.75;;;;;;;19.42;31.46;95213.72;5083098;28;20055;-77
2021/04/28 08:56:21;;;;;;;6.18;5.68;;;;;;;19.51;31.40;95214.56;5078688;28;20044;-77
2021/04/28 08:58:50;;;;;;;6.13;5.53;;;;;;;19.69;31.29;95210.09;5091590;28;20048;-77
2021/04/28 09:01:34;;;;;;;6.28;5.68;;;;;;;19.86;30.93;95206.75;5067022;28;20071;-77
2021/04/28 09:04:10;;;;;;;8.82;5.85;;;;;;;19.86;30.78;95206.75;5082005;28;20040;-77
2021/04/28 09:06:37;;;;;;;5.90;5.30;;;;;;;19.80;30.74;95207.97;5083371;28;20503;-77
2021/04/28 09:09:08;;;;;;;7.55;5.72;;;;;;;19.84;31.16;95208.94;5082866;28;20048;-77
2021/04/28 09:11:57;;;;;;;5.43;4.97;;;;;;;20.16;30.83;95205.16;5080313;28;20048;-77
2021/04/28 09:14:28;;;;;;;5.93;5.30;;;;;;;20.58;30.65;95210.09;5080681;28;20036;-77
2021/04/28 09:16:54;;;;;;;7.50;5.68;;;;;;;20.82;30.17;95209.66;5080410;28;20453;-77
2021/04/28 09:19:31;;;;;;;5.85;5.30;;;;;;;20.90;28.46;95214.19;5082035;28;20056;-77
2021/04/28 09:22:04;;;;;;;6.43;5.43;;;;;;;20.97;28.87;95211.84;5082204;28;20052;-77
2021/04/28 09:24:36;;;;;;;5.78;5.20;;;;;;;20.60;28.02;95213.22;5082972;28;20041;-77
2021/04/28 09:27:35;;;;;;;6.23;4.87;;;;;;;20.38;27.60;95206.91;5084369;28;20465;-77
2021/04/28 09:30:21;;;;;;;8.32;4.90;;;;;;;20.67;28.03;95203.69;5081905;28;20041;-77
2021/04/28 09:32:48;;;;;;;5.50;4.75;;;;;;;21.02;28.14;95202.88;5086209;28;20040;-77
2021/04/28 09:35:17;;;;;;;4.47;4.07;;;;;;;21.27;28.03;95207.44;5079367;28;20476;-77
2021/04/28 09:37:54;;;;;;;5.30;4.80;;;;;;;21.43;27.80;95197.06;5079755;28;20041;-77
2021/04/28 09:40:38;;;;;;;5.10;4.60;;;;;;;21.48;27.41;95191.56;5089821;28;20035;-77
2021/04/28 09:43:05;;;;;;;4.20;3.40;;;;;;;21.59;26.82;95201.91;5084748;28;20396;-77
2021/04/28 09:45:49;;;;;;;4.45;4.05;;;;;;;21.28;25.65;95192.22;5083281;28;20020;-77
2021/04/28 09:48:23;;;;;;;3.90;3.60;;;;;;;21.31;25.18;95191.56;5082645;28;20039;-77
2021/04/28 09:51:01;;;;;;;2.60;2.50;;;;;;;21.49;25.95;95187.78;5085130;28;20047;-77
2021/04/28 09:53:28;;;;;;;3.25;3.05;;;;;;;21.73;25.23;95194.44;5079114;28;20032;-77
2021/04/28 09:55:55;;;;;;;4.18;3.60;;;;;;;21.91;25.04;95187.16;5083048;28;20047;-77
2021/04/28 09:58:47;;;;;;;4.13;3.72;;;;;;;22.06;23.44;95181.28;5079582;28;20032;-77
2021/04/28 10:01:15;;;;;;;4.00;3.70;;;;;;;21.99;24.28;95180.25;5080712;28;20032;-77
2021/04/28 10:03:47;;;;;;;3.53;3.20;;;;;;;22.10;23.76;95171.53;5077032;28;20036;-77
2021/04/28 10:06:14;;;;;;;3.42;2.92;;;;;;;22.14;23.79;95171.66;5088606;28;20519;-77
2021/04/28 10:08:40;;;;;;;4.90;3.40;;;;;;;22.00;23.96;95168.44;5082463;28;20028;-77
2021/04/28 10:11:07;;;;;;;3.70;3.40;;;;;;;21.89;23.84;95168.03;5092593;28;20040;-77
2021/04/28 10:13:33;;;;;;;3.58;3.05;;;;;;;22.06;23.82;95167.94;5082216;28;20036;-77
2021/04/28 10:16:00;;;;;;;3.75;3.42;;;;;;;22.22;23.36;95164.72;5062456;28;20044;-78
2021/04/28 10:18:28;;;;;;;3.75;3.45;;;;;;;22.26;23.25;95165.66;5083909;28;20465;-77
2021/04/28 10:20:55;;;;;;;3.50;3.20;;;;;;;22.20;23.35;95166.94;5081950;28;20048;-77
2021/04/28 10:23:24;;;;;;;3.67;3.05;;;;;;;22.40;23.43;95163.50;5077404;28;20048;-77
2021/04/28 10:25:50;;;;;;;3.75;3.45;;;;;;;22.51;23.28;95163.94;5063681;28;20436;-77
2021/04/28 10:28:18;;;;;;;3.22;3.03;;;;;;;22.77;23.26;95152.25;5084917;28;20040;-77
2021/04/28 10:30:46;;;;;;;3.42;3.13;;;;;;;22.86;22.69;95150.28;5068649;28;20044;-77
2021/04/28 10:33:19;;;;;;;3.30;3.00;;;;;;;22.74;21.87;95153.69;5079952;28;20036;-77
2021/04/28 10:35:47;;;;;;;4.78;3.22;;;;;;;22.60;22.45;95153.19;5083904;28;20032;-77
2021/04/28 10:38:21;;;;;;;4.28;2.90;;;;;;;22.33;21.95;95154.47;5087433;28;20400;-77
2021/04/28 10:40:47;;;;;;;2.90;2.60;;;;;;;22.33;22.38;95149.13;5089749;28;20042;-77
2021/04/28 10:43:38;;;;;;;2.92;2.72;;;;;;;22.67;21.94;95146.19;5086315;28;20036;-77
2021/04/28 10:46:24;;;;;;;2.90;2.70;;;;;;;23.07;21.14;95142.25;5085994;28;20084;-77
2021/04/28 10:48:52;;;;;;;3.40;3.10;;;;;;;23.04;21.74;95145.59;5086041;28;20047;-77
2021/04/28 10:51:39;;;;;;;2.80;2.58;;;;;;;23.15;21.05;95135.25;5080649;28;20045;-77
2021/04/28 10:54:26;;;;;;;2.88;2.67;;;;;;;23.24;20.46;95136.72;5086525;28;20040;-77
2021/04/28 10:57:31;;;;;;;2.60;2.40;;;;;;;23.09;20.55;95140.81;5079482;28;20036;-77
2021/04/28 10:59:59;;;;;;;3.38;2.92;;;;;;;23.23;21.33;95134.41;5086482;28;20039;-77
2021/04/28 11:02:30;;;;;;;2.97;2.75;;;;;;;23.17;20.34;95119.66;5078340;28;20523;-77
2021/04/28 11:05:05;;;;;;;4.00;2.70;;;;;;;23.26;20.77;95126.47;5084561;28;20382;-77
2021/04/28 11:07:42;;;;;;;2.40;2.20;;;;;;;23.33;20.84;95125.94;5085461;28;20040;-77
2021/04/28 11:10:32;;;;;;;2.15;2.00;;;;;;;23.31;19.97;95120.16;5081610;28;20043;-77
2021/04/28 11:13:01;;;;;;;3.03;2.05;;;;;;;23.56;20.30;95120.16;5082822;28;20067;-77
2021/04/28 11:15:51;;;;;;;3.50;2.65;;;;;;;23.65;19.40;95121.63;5085217;28;20036;-77
2021/04/28 11:18:37;;;;;;;2.17;2.08;;;;;;;23.62;19.65;95111.59;5085923;28;20480;-77
2021/04/28 11:21:16;;;;;;;2.42;2.22;;;;;;;23.66;19.96;95125.84;5085161;28;20040;-77
2021/04/28 11:24:08;;;;;;;2.45;2.25;;;;;;;23.99;19.76;95113.50;5081537;28;20040;-77
2021/04/28 11:26:37;;;;;;;2.35;2.15;;;;;;;24.29;19.82;95108.66;5088001;28;20491;-77
2021/04/28 11:29:05;;;;;;;4.75;2.33;;;;;;;24.63;19.56;95112.72;5088851;28;20043;-77
2021/04/28 11:31:42;;;;;;;3.20;1.92;;;;;;;24.31;19.03;95114.44;5082108;28;20036;-76
2021/04/28 11:34:26;;;;;;;2.15;2.03;;;;;;;23.79;18.64;95102.59;5083553;28;20074;-77
2021/04/28 11:37:09;;;;;;;2.22;2.05;;;;;;;23.57;19.40;95106.47;5082467;28;20039;-76
2021/04/28 11:39:42;;;;;;;2.83;2.10;;;;;;;23.54;19.22;95109.00;5081934;28;20044;-76
2021/04/28 11:42:11;;;;;;;2.72;2.08;;;;;;;23.53;19.93;95099.44;5087417;28;20476;-77
2021/04/28 11:44:49;;;;;;;2.53;2.03;;;;;;;23.76;19.89;95105.13;5086351;28;20035;-77
2021/04/28 11:47:21;;;;;;;2.00;1.80;;;;;;;23.95;19.28;95105.38;5084379;28;20043;-77